In Rescue
 
August 12, 2020 2:09 AM EDT
Weather Information
Wind Direction
  ---
Wind Speed
  00 kt (0 mph)
Wind Gust
  00 kt (0 mph)
Altimeter
30.04 in
Visibility
10 SM
Temperature
19° C
66° F
Dewpoint
14° C
57° F
Humidity
73%
1hr Rain Fall
00.00 in.
24hr Rain Fall
00.00 in.
Sky Condition
Clear
VFR

METAR KONZ 120609Z AUTO 00000KT 10SM CLR 19/14 A3004 RMK AO2 T01860143

FAA Disclaimer: The data displayed is for advisory purposes only and is not to be used for flight planning or operations.